sensor_id;sensor_type;location;lat;lon;timestamp;P1;durP1;ratioP1;P2;durP2;ratioP2
66893;SDS011;53801;55.786;49.142;2023-02-28T00:00:04;8.63;;;3.37;;
66893;SDS011;53801;55.786;49.142;2023-02-28T00:02:39;7.57;;;2.95;;
66893;SDS011;53801;55.786;49.142;2023-02-28T00:05:06;8.25;;;3.08;;
66893;SDS011;53801;55.786;49.142;2023-02-28T00:07:32;10.13;;;4.10;;
66893;SDS011;53801;55.786;49.142;2023-02-28T00:09:58;7.63;;;3.13;;
66893;SDS011;53801;55.786;49.142;2023-02-28T00:12:24;9.43;;;3.20;;
66893;SDS011;53801;55.786;49.142;2023-02-28T00:14:49;6.63;;;3.70;;
66893;SDS011;53801;55.786;49.142;2023-02-28T00:17:15;10.23;;;3.60;;
66893;SDS011;53801;55.786;49.142;2023-02-28T00:19:49;9.03;;;2.47;;
66893;SDS011;53801;55.786;49.142;2023-02-28T00:22:16;7.32;;;3.00;;
66893;SDS011;53801;55.786;49.142;2023-02-28T00:24:41;9.57;;;3.70;;
66893;SDS011;53801;55.786;49.142;2023-02-28T00:27:07;7.70;;;3.17;;
66893;SDS011;53801;55.786;49.142;2023-02-28T00:29:32;9.50;;;3.25;;
66893;SDS011;53801;55.786;49.142;2023-02-28T00:32:00;9.23;;;3.22;;
66893;SDS011;53801;55.786;49.142;2023-02-28T00:34:25;7.50;;;2.50;;
66893;SDS011;53801;55.786;49.142;2023-02-28T00:36:51;6.00;;;2.80;;
66893;SDS011;53801;55.786;49.142;2023-02-28T00:39:16;9.57;;;2.97;;
66893;SDS011;53801;55.786;49.142;2023-02-28T00:41:42;8.80;;;3.40;;
66893;SDS011;53801;55.786;49.142;2023-02-28T00:44:07;7.53;;;2.60;;
66893;SDS011;53801;55.786;49.142;2023-02-28T00:46:33;7.63;;;2.58;;
66893;SDS011;53801;55.786;49.142;2023-02-28T00:48:58;9.40;;;3.03;;
66893;SDS011;53801;55.786;49.142;2023-02-28T00:51:24;8.23;;;2.53;;
66893;SDS011;53801;55.786;49.142;2023-02-28T00:53:50;8.98;;;3.08;;
66893;SDS011;53801;55.786;49.142;2023-02-28T00:56:16;7.17;;;2.47;;
66893;SDS011;53801;55.786;49.142;2023-02-28T00:58:41;6.70;;;2.40;;
66893;SDS011;53801;55.786;49.142;2023-02-28T01:01:07;6.65;;;2.25;;
66893;SDS011;53801;55.786;49.142;2023-02-28T01:03:32;15.37;;;2.57;;
66893;SDS011;53801;55.786;49.142;2023-02-28T01:05:58;5.97;;;2.47;;
66893;SDS011;53801;55.786;49.142;2023-02-28T01:08:23;7.83;;;2.67;;
66893;SDS011;53801;55.786;49.142;2023-02-28T01:10:48;7.10;;;3.03;;
66893;SDS011;53801;55.786;49.142;2023-02-28T01:13:14;8.00;;;3.63;;
66893;SDS011;53801;55.786;49.142;2023-02-28T01:15:40;7.23;;;2.97;;
66893;SDS011;53801;55.786;49.142;2023-02-28T01:18:07;12.95;;;3.15;;
66893;SDS011;53801;55.786;49.142;2023-02-28T01:20:32;5.13;;;2.17;;
66893;SDS011;53801;55.786;49.142;2023-02-28T01:22:57;7.53;;;2.93;;
66893;SDS011;53801;55.786;49.142;2023-02-28T01:25:23;7.88;;;2.90;;
66893;SDS011;53801;55.786;49.142;2023-02-28T01:27:48;5.82;;;1.90;;
66893;SDS011;53801;55.786;49.142;2023-02-28T01:30:14;5.50;;;2.07;;
66893;SDS011;53801;55.786;49.142;2023-02-28T01:32:39;4.30;;;1.67;;
66893;SDS011;53801;55.786;49.142;2023-02-28T01:35:05;5.97;;;2.33;;
66893;SDS011;53801;55.786;49.142;2023-02-28T01:37:30;6.85;;;2.60;;
66893;SDS011;53801;55.786;49.142;2023-02-28T01:39:56;6.53;;;2.30;;
66893;SDS011;53801;55.786;49.142;2023-02-28T01:42:21;7.63;;;2.80;;
66893;SDS011;53801;55.786;49.142;2023-02-28T01:47:18;8.77;;;2.80;;
66893;SDS011;53801;55.786;49.142;2023-02-28T01:49:44;5.90;;;2.28;;
66893;SDS011;53801;55.786;49.142;2023-02-28T01:52:09;7.93;;;2.27;;
66893;SDS011;53801;55.786;49.142;2023-02-28T01:54:43;7.15;;;2.75;;
66893;SDS011;53801;55.786;49.142;2023-02-28T01:57:11;7.40;;;2.47;;
66893;SDS011;53801;55.786;49.142;2023-02-28T01:59:40;9.30;;;3.00;;
66893;SDS011;53801;55.786;49.142;2023-02-28T02:02:11;6.30;;;1.95;;
66893;SDS011;53801;55.786;49.142;2023-02-28T02:04:41;8.25;;;3.15;;
66893;SDS011;53801;55.786;49.142;2023-02-28T02:07:09;8.60;;;3.17;;
66893;SDS011;53801;55.786;49.142;2023-02-28T02:09:35;7.80;;;2.72;;
66893;SDS011;53801;55.786;49.142;2023-02-28T02:12:02;7.07;;;2.77;;
66893;SDS011;53801;55.786;49.142;2023-02-28T02:14:51;8.00;;;2.95;;
66893;SDS011;53801;55.786;49.142;2023-02-28T02:17:25;6.38;;;2.15;;
66893;SDS011;53801;55.786;49.142;2023-02-28T02:42:29;7.80;;;2.90;;
66893;SDS011;53801;55.786;49.142;2023-02-28T02:45:01;7.93;;;2.85;;
66893;SDS011;53801;55.786;49.142;2023-02-28T02:47:29;6.85;;;2.75;;
66893;SDS011;53801;55.786;49.142;2023-02-28T02:49:56;8.90;;;2.60;;
66893;SDS011;53801;55.786;49.142;2023-02-28T02:52:23;8.60;;;2.67;;
66893;SDS011;53801;55.786;49.142;2023-02-28T02:54:50;6.17;;;2.80;;
66893;SDS011;53801;55.786;49.142;2023-02-28T03:00:07;8.48;;;3.50;;
66893;SDS011;53801;55.786;49.142;2023-02-28T03:02:34;5.63;;;2.03;;
66893;SDS011;53801;55.786;49.142;2023-02-28T03:05:01;7.50;;;2.92;;
66893;SDS011;53801;55.786;49.142;2023-02-28T03:07:28;7.77;;;2.67;;
66893;SDS011;53801;55.786;49.142;2023-02-28T03:09:54;8.00;;;2.53;;
66893;SDS011;53801;55.786;49.142;2023-02-28T03:12:20;4.75;;;1.80;;
66893;SDS011;53801;55.786;49.142;2023-02-28T03:14:55;8.98;;;2.47;;
66893;SDS011;53801;55.786;49.142;2023-02-28T03:27:31;5.33;;;1.70;;
66893;SDS011;53801;55.786;49.142;2023-02-28T03:32:30;6.28;;;2.20;;
66893;SDS011;53801;55.786;49.142;2023-02-28T03:37:24;6.97;;;2.20;;
66893;SDS011;53801;55.786;49.142;2023-02-28T03:39:55;9.05;;;2.50;;
66893;SDS011;53801;55.786;49.142;2023-02-28T03:42:22;7.23;;;2.17;;
66893;SDS011;53801;55.786;49.142;2023-02-28T03:44:58;7.00;;;2.28;;
66893;SDS011;53801;55.786;49.142;2023-02-28T03:48:00;7.50;;;2.78;;
66893;SDS011;53801;55.786;49.142;2023-02-28T03:51:01;4.82;;;2.00;;
66893;SDS011;53801;55.786;49.142;2023-02-28T03:53:16;6.88;;;2.67;;
66893;SDS011;53801;55.786;49.142;2023-02-28T03:56:06;5.30;;;1.90;;
66893;SDS011;53801;55.786;49.142;2023-02-28T04:01:12;4.22;;;1.55;;
66893;SDS011;53801;55.786;49.142;2023-02-28T04:03:38;7.40;;;1.85;;
66893;SDS011;53801;55.786;49.142;2023-02-28T04:06:04;8.13;;;2.57;;
66893;SDS011;53801;55.786;49.142;2023-02-28T04:08:30;4.63;;;1.70;;
66893;SDS011;53801;55.786;49.142;2023-02-28T04:10:58;4.78;;;1.73;;
66893;SDS011;53801;55.786;49.142;2023-02-28T04:13:25;5.03;;;1.93;;
66893;SDS011;53801;55.786;49.142;2023-02-28T04:15:50;5.68;;;1.70;;
66893;SDS011;53801;55.786;49.142;2023-02-28T04:18:16;5.03;;;1.50;;
66893;SDS011;53801;55.786;49.142;2023-02-28T04:20:41;5.93;;;1.90;;
66893;SDS011;53801;55.786;49.142;2023-02-28T04:23:06;8.67;;;2.20;;
66893;SDS011;53801;55.786;49.142;2023-02-28T04:25:32;6.93;;;2.27;;
66893;SDS011;53801;55.786;49.142;2023-02-28T04:27:57;9.20;;;2.30;;
66893;SDS011;53801;55.786;49.142;2023-02-28T04:30:23;4.65;;;1.58;;
66893;SDS011;53801;55.786;49.142;2023-02-28T04:32:48;6.68;;;2.13;;
66893;SDS011;53801;55.786;49.142;2023-02-28T04:35:14;3.83;;;1.53;;
66893;SDS011;53801;55.786;49.142;2023-02-28T04:37:39;5.80;;;2.00;;
66893;SDS011;53801;55.786;49.142;2023-02-28T04:40:05;7.33;;;2.60;;
66893;SDS011;53801;55.786;49.142;2023-02-28T04:42:30;5.05;;;1.92;;
66893;SDS011;53801;55.786;49.142;2023-02-28T04:45:04;6.07;;;2.50;;
66893;SDS011;53801;55.786;49.142;2023-02-28T04:47:30;6.38;;;2.03;;
66893;SDS011;53801;55.786;49.142;2023-02-28T04:49:58;5.33;;;1.70;;
66893;SDS011;53801;55.786;49.142;2023-02-28T04:52:23;4.75;;;2.00;;
66893;SDS011;53801;55.786;49.142;2023-02-28T04:54:49;5.18;;;2.10;;
66893;SDS011;53801;55.786;49.142;2023-02-28T04:57:15;8.47;;;2.13;;
66893;SDS011;53801;55.786;49.142;2023-02-28T04:59:41;4.47;;;1.83;;
66893;SDS011;53801;55.786;49.142;2023-02-28T05:02:06;5.47;;;1.70;;
66893;SDS011;53801;55.786;49.142;2023-02-28T05:04:33;5.70;;;1.90;;
66893;SDS011;53801;55.786;49.142;2023-02-28T05:07:01;6.63;;;2.08;;
66893;SDS011;53801;55.786;49.142;2023-02-28T05:09:28;5.72;;;2.03;;
66893;SDS011;53801;55.786;49.142;2023-02-28T05:11:54;10.13;;;2.80;;
66893;SDS011;53801;55.786;49.142;2023-02-28T05:14:19;6.13;;;2.03;;
66893;SDS011;53801;55.786;49.142;2023-02-28T05:16:45;5.77;;;2.00;;
66893;SDS011;53801;55.786;49.142;2023-02-28T05:19:10;7.78;;;2.55;;
66893;SDS011;53801;55.786;49.142;2023-02-28T05:21:37;7.30;;;2.57;;
66893;SDS011;53801;55.786;49.142;2023-02-28T05:24:04;8.02;;;3.15;;
66893;SDS011;53801;55.786;49.142;2023-02-28T05:26:34;7.65;;;2.95;;
66893;SDS011;53801;55.786;49.142;2023-02-28T05:29:00;8.93;;;2.85;;
66893;SDS011;53801;55.786;49.142;2023-02-28T05:31:25;6.97;;;2.73;;
66893;SDS011;53801;55.786;49.142;2023-02-28T05:33:51;11.30;;;3.80;;
66893;SDS011;53801;55.786;49.142;2023-02-28T05:36:16;8.07;;;2.90;;
66893;SDS011;53801;55.786;49.142;2023-02-28T05:38:42;6.97;;;2.78;;
66893;SDS011;53801;55.786;49.142;2023-02-28T05:41:07;7.57;;;2.40;;
66893;SDS011;53801;55.786;49.142;2023-02-28T05:43:33;9.50;;;4.17;;
66893;SDS011;53801;55.786;49.142;2023-02-28T05:45:58;11.10;;;3.47;;
66893;SDS011;53801;55.786;49.142;2023-02-28T05:48:24;12.13;;;4.33;;
66893;SDS011;53801;55.786;49.142;2023-02-28T05:50:51;11.05;;;3.78;;
66893;SDS011;53801;55.786;49.142;2023-02-28T05:53:16;7.03;;;3.33;;
66893;SDS011;53801;55.786;49.142;2023-02-28T05:55:42;7.87;;;3.73;;
66893;SDS011;53801;55.786;49.142;2023-02-28T05:58:07;6.30;;;3.10;;
66893;SDS011;53801;55.786;49.142;2023-02-28T06:00:33;9.20;;;3.78;;
66893;SDS011;53801;55.786;49.142;2023-02-28T06:03:01;9.00;;;3.20;;
66893;SDS011;53801;55.786;49.142;2023-02-28T06:05:28;8.13;;;3.75;;
66893;SDS011;53801;55.786;49.142;2023-02-28T06:07:54;10.00;;;3.90;;
66893;SDS011;53801;55.786;49.142;2023-02-28T06:10:19;11.03;;;4.50;;
66893;SDS011;53801;55.786;49.142;2023-02-28T06:12:45;8.27;;;3.70;;
66893;SDS011;53801;55.786;49.142;2023-02-28T06:15:14;9.15;;;4.45;;
66893;SDS011;53801;55.786;49.142;2023-02-28T06:17:40;6.93;;;3.30;;
66893;SDS011;53801;55.786;49.142;2023-02-28T06:20:06;8.48;;;4.20;;
66893;SDS011;53801;55.786;49.142;2023-02-28T06:22:32;9.38;;;4.57;;
66893;SDS011;53801;55.786;49.142;2023-02-28T06:24:57;9.57;;;3.80;;
66893;SDS011;53801;55.786;49.142;2023-02-28T06:27:23;10.68;;;4.53;;
66893;SDS011;53801;55.786;49.142;2023-02-28T06:29:48;6.13;;;3.50;;
66893;SDS011;53801;55.786;49.142;2023-02-28T06:32:14;6.67;;;3.87;;
66893;SDS011;53801;55.786;49.142;2023-02-28T06:34:39;6.87;;;4.13;;
66893;SDS011;53801;55.786;49.142;2023-02-28T06:37:05;8.20;;;4.32;;
66893;SDS011;53801;55.786;49.142;2023-02-28T06:39:31;8.07;;;4.37;;
66893;SDS011;53801;55.786;49.142;2023-02-28T06:41:56;7.70;;;4.17;;
66893;SDS011;53801;55.786;49.142;2023-02-28T06:44:24;6.57;;;3.97;;
66893;SDS011;53801;55.786;49.142;2023-02-28T06:46:50;7.03;;;3.70;;
66893;SDS011;53801;55.786;49.142;2023-02-28T06:49:19;6.93;;;3.80;;
66893;SDS011;53801;55.786;49.142;2023-02-28T06:51:44;5.83;;;3.73;;
66893;SDS011;53801;55.786;49.142;2023-02-28T06:54:10;6.50;;;3.83;;
66893;SDS011;53801;55.786;49.142;2023-02-28T06:56:36;6.13;;;4.00;;
66893;SDS011;53801;55.786;49.142;2023-02-28T06:59:01;5.73;;;3.43;;
66893;SDS011;53801;55.786;49.142;2023-02-28T07:01:27;5.77;;;3.87;;
66893;SDS011;53801;55.786;49.142;2023-02-28T07:03:53;6.75;;;3.70;;
66893;SDS011;53801;55.786;49.142;2023-02-28T07:06:24;5.85;;;3.50;;
66893;SDS011;53801;55.786;49.142;2023-02-28T07:08:52;7.97;;;3.93;;
66893;SDS011;53801;55.786;49.142;2023-02-28T07:11:21;5.55;;;3.75;;
66893;SDS011;53801;55.786;49.142;2023-02-28T07:13:53;7.15;;;3.90;;
66893;SDS011;53801;55.786;49.142;2023-02-28T07:16:19;5.38;;;3.17;;
66893;SDS011;53801;55.786;49.142;2023-02-28T07:18:45;6.60;;;3.33;;
66893;SDS011;53801;55.786;49.142;2023-02-28T07:21:10;5.00;;;3.50;;
66893;SDS011;53801;55.786;49.142;2023-02-28T07:23:38;7.25;;;3.53;;
66893;SDS011;53801;55.786;49.142;2023-02-28T07:26:04;6.35;;;3.40;;
66893;SDS011;53801;55.786;49.142;2023-02-28T07:28:29;7.72;;;3.70;;
66893;SDS011;53801;55.786;49.142;2023-02-28T07:30:55;5.10;;;3.40;;
66893;SDS011;53801;55.786;49.142;2023-02-28T07:33:23;5.43;;;3.15;;
66893;SDS011;53801;55.786;49.142;2023-02-28T07:35:49;6.07;;;2.97;;
66893;SDS011;53801;55.786;49.142;2023-02-28T07:41:24;3.95;;;2.28;;
66893;SDS011;53801;55.786;49.142;2023-02-28T07:44:02;4.20;;;2.40;;
66893;SDS011;53801;55.786;49.142;2023-02-28T07:46:28;4.03;;;2.57;;
66893;SDS011;53801;55.786;49.142;2023-02-28T07:49:00;5.82;;;2.67;;
66893;SDS011;53801;55.786;49.142;2023-02-28T07:51:28;3.92;;;2.38;;
66893;SDS011;53801;55.786;49.142;2023-02-28T07:53:54;5.60;;;2.57;;
66893;SDS011;53801;55.786;49.142;2023-02-28T07:56:19;6.05;;;2.47;;
66893;SDS011;53801;55.786;49.142;2023-02-28T07:58:45;5.00;;;2.57;;
66893;SDS011;53801;55.786;49.142;2023-02-28T08:01:10;4.27;;;2.43;;
66893;SDS011;53801;55.786;49.142;2023-02-28T08:03:36;4.63;;;2.40;;
66893;SDS011;53801;55.786;49.142;2023-02-28T08:06:05;3.83;;;2.00;;
66893;SDS011;53801;55.786;49.142;2023-02-28T08:08:31;5.00;;;2.05;;
66893;SDS011;53801;55.786;49.142;2023-02-28T08:11:02;3.87;;;1.80;;
66893;SDS011;53801;55.786;49.142;2023-02-28T08:13:30;4.22;;;1.70;;
66893;SDS011;53801;55.786;49.142;2023-02-28T08:15:56;4.78;;;2.25;;
66893;SDS011;53801;55.786;49.142;2023-02-28T08:18:21;5.57;;;2.30;;
66893;SDS011;53801;55.786;49.142;2023-02-28T08:20:47;3.92;;;1.70;;
66893;SDS011;53801;55.786;49.142;2023-02-28T08:23:13;3.50;;;1.50;;
66893;SDS011;53801;55.786;49.142;2023-02-28T08:25:38;5.10;;;1.83;;
66893;SDS011;53801;55.786;49.142;2023-02-28T08:28:04;5.80;;;2.15;;
66893;SDS011;53801;55.786;49.142;2023-02-28T08:30:29;5.20;;;2.13;;
66893;SDS011;53801;55.786;49.142;2023-02-28T08:32:54;6.40;;;1.90;;
66893;SDS011;53801;55.786;49.142;2023-02-28T08:35:20;11.13;;;2.27;;
66893;SDS011;53801;55.786;49.142;2023-02-28T08:37:47;4.45;;;1.63;;
66893;SDS011;53801;55.786;49.142;2023-02-28T08:40:13;6.10;;;2.33;;
66893;SDS011;53801;55.786;49.142;2023-02-28T08:42:46;5.50;;;2.15;;
66893;SDS011;53801;55.786;49.142;2023-02-28T08:45:12;3.72;;;1.77;;
66893;SDS011;53801;55.786;49.142;2023-02-28T08:47:40;5.07;;;2.20;;
66893;SDS011;53801;55.786;49.142;2023-02-28T08:50:05;4.53;;;1.63;;
66893;SDS011;53801;55.786;49.142;2023-02-28T08:52:31;6.47;;;2.15;;
66893;SDS011;53801;55.786;49.142;2023-02-28T08:54:56;4.50;;;1.70;;
66893;SDS011;53801;55.786;49.142;2023-02-28T08:57:22;5.20;;;1.53;;
66893;SDS011;53801;55.786;49.142;2023-02-28T08:59:47;3.63;;;1.50;;
66893;SDS011;53801;55.786;49.142;2023-02-28T09:02:13;3.63;;;1.40;;
66893;SDS011;53801;55.786;49.142;2023-02-28T09:04:39;4.05;;;1.30;;
66893;SDS011;53801;55.786;49.142;2023-02-28T09:07:04;3.88;;;1.40;;
66893;SDS011;53801;55.786;49.142;2023-02-28T09:09:30;5.95;;;1.52;;
66893;SDS011;53801;55.786;49.142;2023-02-28T09:11:56;4.87;;;1.30;;
66893;SDS011;53801;55.786;49.142;2023-02-28T09:14:21;3.55;;;1.40;;
66893;SDS011;53801;55.786;49.142;2023-02-28T09:16:47;3.30;;;1.37;;
66893;SDS011;53801;55.786;49.142;2023-02-28T09:19:13;3.67;;;1.70;;
66893;SDS011;53801;55.786;49.142;2023-02-28T09:21:38;4.47;;;2.05;;
66893;SDS011;53801;55.786;49.142;2023-02-28T09:24:04;3.30;;;1.70;;
66893;SDS011;53801;55.786;49.142;2023-02-28T09:26:30;2.45;;;1.70;;
66893;SDS011;53801;55.786;49.142;2023-02-28T09:28:55;3.17;;;1.70;;
66893;SDS011;53801;55.786;49.142;2023-02-28T09:31:23;4.18;;;1.77;;
66893;SDS011;53801;55.786;49.142;2023-02-28T09:33:49;4.55;;;1.20;;
66893;SDS011;53801;55.786;49.142;2023-02-28T09:36:15;4.07;;;1.50;;
66893;SDS011;53801;55.786;49.142;2023-02-28T09:38:40;5.13;;;1.38;;
66893;SDS011;53801;55.786;49.142;2023-02-28T09:41:16;4.57;;;1.33;;
66893;SDS011;53801;55.786;49.142;2023-02-28T09:43:44;3.47;;;1.10;;
66893;SDS011;53801;55.786;49.142;2023-02-28T09:48:56;2.90;;;1.25;;
66893;SDS011;53801;55.786;49.142;2023-02-28T09:51:37;3.13;;;1.30;;
66893;SDS011;53801;55.786;49.142;2023-02-28T09:54:04;2.85;;;1.20;;
66893;SDS011;53801;55.786;49.142;2023-02-28T09:56:32;3.20;;;1.10;;
66893;SDS011;53801;55.786;49.142;2023-02-28T10:06:39;2.85;;;1.63;;
66893;SDS011;53801;55.786;49.142;2023-02-28T10:09:08;4.20;;;2.28;;
66893;SDS011;53801;55.786;49.142;2023-02-28T10:11:38;4.80;;;1.63;;
66893;SDS011;53801;55.786;49.142;2023-02-28T10:14:07;3.70;;;1.35;;
66893;SDS011;53801;55.786;49.142;2023-02-28T10:16:40;6.75;;;1.80;;
66893;SDS011;53801;55.786;49.142;2023-02-28T10:19:17;4.40;;;1.90;;
66893;SDS011;53801;55.786;49.142;2023-02-28T10:21:47;4.75;;;1.90;;
66893;SDS011;53801;55.786;49.142;2023-02-28T10:24:23;4.67;;;2.33;;
66893;SDS011;53801;55.786;49.142;2023-02-28T10:26:52;2.92;;;1.30;;
66893;SDS011;53801;55.786;49.142;2023-02-28T10:29:22;2.15;;;1.05;;
66893;SDS011;53801;55.786;49.142;2023-02-28T10:31:47;4.07;;;1.80;;
66893;SDS011;53801;55.786;49.142;2023-02-28T10:34:13;3.97;;;1.70;;
66893;SDS011;53801;55.786;49.142;2023-02-28T10:36:39;2.92;;;1.20;;
66893;SDS011;53801;55.786;49.142;2023-02-28T10:41:55;4.13;;;2.03;;
66893;SDS011;53801;55.786;49.142;2023-02-28T10:44:21;3.93;;;1.60;;
66893;SDS011;53801;55.786;49.142;2023-02-28T10:46:46;8.05;;;2.53;;
66893;SDS011;53801;55.786;49.142;2023-02-28T10:49:23;7.37;;;2.27;;
66893;SDS011;53801;55.786;49.142;2023-02-28T10:51:51;4.03;;;1.65;;
66893;SDS011;53801;55.786;49.142;2023-02-28T10:54:38;5.72;;;2.20;;
66893;SDS011;53801;55.786;49.142;2023-02-28T10:59:49;3.47;;;1.38;;
66893;SDS011;53801;55.786;49.142;2023-02-28T11:02:34;7.10;;;2.30;;
66893;SDS011;53801;55.786;49.142;2023-02-28T11:05:01;5.95;;;2.22;;
66893;SDS011;53801;55.786;49.142;2023-02-28T11:07:28;4.60;;;1.85;;
66893;SDS011;53801;55.786;49.142;2023-02-28T11:10:23;5.10;;;2.25;;
66893;SDS011;53801;55.786;49.142;2023-02-28T11:12:58;6.10;;;2.17;;
66893;SDS011;53801;55.786;49.142;2023-02-28T11:15:26;6.33;;;1.70;;
66893;SDS011;53801;55.786;49.142;2023-02-28T11:17:59;4.25;;;1.33;;
66893;SDS011;53801;55.786;49.142;2023-02-28T11:20:26;6.10;;;2.03;;
66893;SDS011;53801;55.786;49.142;2023-02-28T11:22:52;5.43;;;1.90;;
66893;SDS011;53801;55.786;49.142;2023-02-28T11:25:27;6.38;;;1.40;;
66893;SDS011;53801;55.786;49.142;2023-02-28T11:27:55;3.57;;;1.57;;
66893;SDS011;53801;55.786;49.142;2023-02-28T11:32:49;4.32;;;1.35;;
66893;SDS011;53801;55.786;49.142;2023-02-28T11:37:47;2.03;;;0.75;;
66893;SDS011;53801;55.786;49.142;2023-02-28T11:40:24;3.70;;;0.90;;
66893;SDS011;53801;55.786;49.142;2023-02-28T11:45:47;3.10;;;0.80;;
66893;SDS011;53801;55.786;49.142;2023-02-28T11:48:23;3.30;;;1.10;;
66893;SDS011;53801;55.786;49.142;2023-02-28T11:55:54;3.50;;;1.27;;
66893;SDS011;53801;55.786;49.142;2023-02-28T11:58:27;4.68;;;1.15;;
66893;SDS011;53801;55.786;49.142;2023-02-28T12:08:51;3.87;;;1.20;;
66893;SDS011;53801;55.786;49.142;2023-02-28T12:11:35;3.60;;;1.00;;
66893;SDS011;53801;55.786;49.142;2023-02-28T12:19:56;3.35;;;1.02;;
66893;SDS011;53801;55.786;49.142;2023-02-28T12:22:21;4.05;;;1.05;;
66893;SDS011;53801;55.786;49.142;2023-02-28T12:27:38;2.50;;;0.90;;
66893;SDS011;53801;55.786;49.142;2023-02-28T12:32:37;4.22;;;1.10;;
66893;SDS011;53801;55.786;49.142;2023-02-28T12:37:40;2.45;;;0.93;;
66893;SDS011;53801;55.786;49.142;2023-02-28T12:40:25;2.70;;;0.87;;
66893;SDS011;53801;55.786;49.142;2023-02-28T12:42:51;4.40;;;1.65;;
66893;SDS011;53801;55.786;49.142;2023-02-28T12:47:50;4.43;;;1.10;;
66893;SDS011;53801;55.786;49.142;2023-02-28T12:50:17;3.72;;;1.40;;
66893;SDS011;53801;55.786;49.142;2023-02-28T13:11:02;3.78;;;1.10;;
66893;SDS011;53801;55.786;49.142;2023-02-28T13:13:30;4.57;;;1.37;;
66893;SDS011;53801;55.786;49.142;2023-02-28T13:16:19;1.08;;;0.50;;
66893;SDS011;53801;55.786;49.142;2023-02-28T13:18:45;5.00;;;1.77;;
66893;SDS011;53801;55.786;49.142;2023-02-28T13:29:01;4.00;;;1.42;;
66893;SDS011;53801;55.786;49.142;2023-02-28T13:31:29;4.47;;;0.93;;
66893;SDS011;53801;55.786;49.142;2023-02-28T13:36:25;2.93;;;0.90;;
66893;SDS011;53801;55.786;49.142;2023-02-28T13:38:54;5.38;;;1.00;;
66893;SDS011;53801;55.786;49.142;2023-02-28T13:46:27;4.28;;;1.05;;
66893;SDS011;53801;55.786;49.142;2023-02-28T13:48:53;3.50;;;0.70;;
66893;SDS011;53801;55.786;49.142;2023-02-28T13:56:57;4.53;;;1.02;;
66893;SDS011;53801;55.786;49.142;2023-02-28T13:59:30;2.38;;;0.65;;
66893;SDS011;53801;55.786;49.142;2023-02-28T14:02:26;3.10;;;1.00;;
66893;SDS011;53801;55.786;49.142;2023-02-28T14:04:53;4.10;;;1.10;;
66893;SDS011;53801;55.786;49.142;2023-02-28T14:07:25;6.70;;;1.73;;
66893;SDS011;53801;55.786;49.142;2023-02-28T14:09:55;4.82;;;1.20;;
66893;SDS011;53801;55.786;49.142;2023-02-28T14:16:06;3.20;;;0.70;;
66893;SDS011;53801;55.786;49.142;2023-02-28T14:18:05;4.07;;;1.00;;
66893;SDS011;53801;55.786;49.142;2023-02-28T14:20:35;3.20;;;1.10;;
66893;SDS011;53801;55.786;49.142;2023-02-28T14:28:18;2.50;;;0.93;;
66893;SDS011;53801;55.786;49.142;2023-02-28T14:38:45;3.40;;;0.70;;
66893;SDS011;53801;55.786;49.142;2023-02-28T14:41:28;2.60;;;0.60;;
66893;SDS011;53801;55.786;49.142;2023-02-28T14:43:55;3.35;;;0.80;;
66893;SDS011;53801;55.786;49.142;2023-02-28T14:46:21;6.22;;;1.27;;
66893;SDS011;53801;55.786;49.142;2023-02-28T14:48:48;1.93;;;0.77;;
66893;SDS011;53801;55.786;49.142;2023-02-28T14:51:18;2.97;;;0.50;;
66893;SDS011;53801;55.786;49.142;2023-02-28T14:53:43;4.35;;;0.95;;
66893;SDS011;53801;55.786;49.142;2023-02-28T14:56:21;2.72;;;0.80;;
66893;SDS011;53801;55.786;49.142;2023-02-28T14:58:51;3.90;;;1.05;;
66893;SDS011;53801;55.786;49.142;2023-02-28T15:01:18;4.50;;;1.50;;
66893;SDS011;53801;55.786;49.142;2023-02-28T15:03:44;2.67;;;0.90;;
66893;SDS011;53801;55.786;49.142;2023-02-28T15:06:16;2.03;;;0.73;;
66893;SDS011;53801;55.786;49.142;2023-02-28T15:08:42;2.10;;;0.70;;
66893;SDS011;53801;55.786;49.142;2023-02-28T15:11:08;3.72;;;1.00;;
66893;SDS011;53801;55.786;49.142;2023-02-28T15:13:36;3.23;;;0.90;;
66893;SDS011;53801;55.786;49.142;2023-02-28T15:16:08;4.35;;;0.90;;
66893;SDS011;53801;55.786;49.142;2023-02-28T15:21:29;4.82;;;1.20;;
66893;SDS011;53801;55.786;49.142;2023-02-28T15:23:57;4.97;;;1.07;;
66893;SDS011;53801;55.786;49.142;2023-02-28T15:26:25;2.75;;;1.00;;
66893;SDS011;53801;55.786;49.142;2023-02-28T15:28:54;3.50;;;1.10;;
66893;SDS011;53801;55.786;49.142;2023-02-28T15:31:32;3.25;;;1.33;;
66893;SDS011;53801;55.786;49.142;2023-02-28T15:34:02;6.13;;;1.48;;
66893;SDS011;53801;55.786;49.142;2023-02-28T15:36:29;3.57;;;1.47;;
66893;SDS011;53801;55.786;49.142;2023-02-28T15:38:55;3.75;;;1.15;;
66893;SDS011;53801;55.786;49.142;2023-02-28T15:41:22;3.28;;;1.10;;
66893;SDS011;53801;55.786;49.142;2023-02-28T15:43:49;5.57;;;1.70;;
66893;SDS011;53801;55.786;49.142;2023-02-28T15:46:14;4.68;;;1.70;;
66893;SDS011;53801;55.786;49.142;2023-02-28T15:48:44;6.88;;;1.25;;
66893;SDS011;53801;55.786;49.142;2023-02-28T15:51:20;5.50;;;1.40;;
66893;SDS011;53801;55.786;49.142;2023-02-28T15:53:59;4.82;;;1.55;;
66893;SDS011;53801;55.786;49.142;2023-02-28T15:56:32;4.90;;;1.27;;
66893;SDS011;53801;55.786;49.142;2023-02-28T15:58:59;3.10;;;1.00;;
66893;SDS011;53801;55.786;49.142;2023-02-28T16:01:26;3.97;;;1.30;;
66893;SDS011;53801;55.786;49.142;2023-02-28T16:03:54;3.83;;;1.15;;
66893;SDS011;53801;55.786;49.142;2023-02-28T16:08:52;3.78;;;1.08;;
66893;SDS011;53801;55.786;49.142;2023-02-28T16:11:18;4.60;;;1.40;;
66893;SDS011;53801;55.786;49.142;2023-02-28T16:13:45;3.75;;;1.45;;
66893;SDS011;53801;55.786;49.142;2023-02-28T16:16:15;4.00;;;1.35;;
66893;SDS011;53801;55.786;49.142;2023-02-28T16:18:40;5.10;;;1.55;;
66893;SDS011;53801;55.786;49.142;2023-02-28T16:21:05;5.77;;;1.73;;
66893;SDS011;53801;55.786;49.142;2023-02-28T16:23:31;4.93;;;1.63;;
66893;SDS011;53801;55.786;49.142;2023-02-28T16:25:56;5.57;;;1.30;;
66893;SDS011;53801;55.786;49.142;2023-02-28T16:28:28;5.33;;;1.60;;
66893;SDS011;53801;55.786;49.142;2023-02-28T16:30:59;8.38;;;1.65;;
66893;SDS011;53801;55.786;49.142;2023-02-28T16:33:24;6.07;;;2.13;;
66893;SDS011;53801;55.786;49.142;2023-02-28T16:35:50;4.37;;;1.30;;
66893;SDS011;53801;55.786;49.142;2023-02-28T16:38:15;5.60;;;1.43;;
66893;SDS011;53801;55.786;49.142;2023-02-28T16:40:41;4.65;;;1.50;;
66893;SDS011;53801;55.786;49.142;2023-02-28T16:43:19;6.47;;;1.60;;
66893;SDS011;53801;55.786;49.142;2023-02-28T16:45:46;7.28;;;1.90;;
66893;SDS011;53801;55.786;49.142;2023-02-28T16:48:13;4.50;;;1.40;;
66893;SDS011;53801;55.786;49.142;2023-02-28T16:50:38;5.75;;;1.65;;
66893;SDS011;53801;55.786;49.142;2023-02-28T16:53:04;5.00;;;1.37;;
66893;SDS011;53801;55.786;49.142;2023-02-28T16:55:29;5.57;;;1.53;;
66893;SDS011;53801;55.786;49.142;2023-02-28T16:57:55;6.70;;;1.73;;
66893;SDS011;53801;55.786;49.142;2023-02-28T17:00:22;4.32;;;1.38;;
66893;SDS011;53801;55.786;49.142;2023-02-28T17:02:48;4.90;;;1.70;;
66893;SDS011;53801;55.786;49.142;2023-02-28T17:05:14;5.85;;;1.80;;
66893;SDS011;53801;55.786;49.142;2023-02-28T17:07:41;5.63;;;1.50;;
66893;SDS011;53801;55.786;49.142;2023-02-28T17:10:14;3.95;;;1.15;;
66893;SDS011;53801;55.786;49.142;2023-02-28T17:12:40;9.02;;;1.67;;
66893;SDS011;53801;55.786;49.142;2023-02-28T17:15:06;6.03;;;1.70;;
66893;SDS011;53801;55.786;49.142;2023-02-28T17:17:31;5.13;;;1.77;;
66893;SDS011;53801;55.786;49.142;2023-02-28T17:19:57;6.10;;;2.33;;